sensor_id;sensor_type;location;lat;lon;timestamp;pressure;altitude;pressure_sealevel;temperature;humidity
73600;BME280;61877;48.246;9.220;2024-01-07T00:01:21;93348.81;;;1.85;100.00
73600;BME280;61877;48.246;9.220;2024-01-07T00:03:46;93344.91;;;1.82;100.00
73600;BME280;61877;48.246;9.220;2024-01-07T00:06:12;93341.97;;;1.84;100.00
73600;BME280;61877;48.246;9.220;2024-01-07T00:08:37;93348.81;;;1.85;100.00
73600;BME280;61877;48.246;9.220;2024-01-07T00:11:02;93353.28;;;1.84;100.00
73600;BME280;61877;48.246;9.220;2024-01-07T00:13:29;93348.81;;;1.85;100.00
73600;BME280;61877;48.246;9.220;2024-01-07T00:15:55;93348.81;;;1.85;100.00
73600;BME280;61877;48.246;9.220;2024-01-07T00:18:20;93349.09;;;1.83;100.00
73600;BME280;61877;48.246;9.220;2024-01-07T00:20:46;93347.84;;;1.81;100.00
73600;BME280;61877;48.246;9.220;2024-01-07T00:23:11;93353.16;;;1.81;100.00
73600;BME280;61877;48.246;9.220;2024-01-07T00:25:37;93352.34;;;1.80;100.00
73600;BME280;61877;48.246;9.220;2024-01-07T00:28:02;93349.41;;;1.82;100.00
73600;BME280;61877;48.246;9.220;2024-01-07T00:30:32;93350.00;;;1.79;100.00
73600;BME280;61877;48.246;9.220;2024-01-07T00:32:57;93343.94;;;1.78;100.00
73600;BME280;61877;48.246;9.220;2024-01-07T00:35:23;93349.03;;;1.75;100.00
73600;BME280;61877;48.246;9.220;2024-01-07T00:37:48;93346.28;;;1.80;100.00
73600;BME280;61877;48.246;9.220;2024-01-07T00:40:14;93342.84;;;1.79;100.00
73600;BME280;61877;48.246;9.220;2024-01-07T00:42:39;93337.84;;;1.78;100.00
73600;BME280;61877;48.246;9.220;2024-01-07T00:45:05;93345.34;;;1.76;100.00
73600;BME280;61877;48.246;9.220;2024-01-07T00:47:32;93340.63;;;1.73;100.00
73600;BME280;61877;48.246;9.220;2024-01-07T00:49:58;93345.16;;;1.72;100.00
73600;BME280;61877;48.246;9.220;2024-01-07T00:52:23;93338.59;;;1.70;100.00
73600;BME280;61877;48.246;9.220;2024-01-07T00:54:48;93346.63;;;1.65;100.00
73600;BME280;61877;48.246;9.220;2024-01-07T00:57:14;93338.41;;;1.66;100.00
73600;BME280;61877;48.246;9.220;2024-01-07T00:59:39;93337.63;;;1.66;100.00
73600;BME280;61877;48.246;9.220;2024-01-07T01:02:05;93336.06;;;1.65;100.00
73600;BME280;61877;48.246;9.220;2024-01-07T01:04:31;93341.03;;;1.66;100.00
73600;BME280;61877;48.246;9.220;2024-01-07T01:06:57;93344.16;;;1.68;100.00
73600;BME280;61877;48.246;9.220;2024-01-07T01:09:22;93346.31;;;1.66;100.00
73600;BME280;61877;48.246;9.220;2024-01-07T01:11:48;93338.59;;;1.70;100.00
73600;BME280;61877;48.246;9.220;2024-01-07T01:14:13;93348.84;;;1.71;100.00
73600;BME280;61877;48.246;9.220;2024-01-07T01:16:39;93345.44;;;1.71;100.00
73600;BME280;61877;48.246;9.220;2024-01-07T01:19:04;93348.56;;;1.73;100.00
73600;BME280;61877;48.246;9.220;2024-01-07T01:21:31;93353.06;;;1.72;100.00
73600;BME280;61877;48.246;9.220;2024-01-07T01:23:56;93349.03;;;1.75;100.00
73600;BME280;61877;48.246;9.220;2024-01-07T01:26:22;93353.72;;;1.78;100.00
73600;BME280;61877;48.246;9.220;2024-01-07T01:28:47;93349.53;;;1.77;100.00
73600;BME280;61877;48.246;9.220;2024-01-07T01:31:13;93352.97;;;1.77;100.00
73600;BME280;61877;48.246;9.220;2024-01-07T01:33:38;93357.16;;;1.78;100.00
73600;BME280;61877;48.246;9.220;2024-01-07T01:36:04;93348.25;;;1.74;100.00
73600;BME280;61877;48.246;9.220;2024-01-07T01:38:31;93349.81;;;1.75;100.00
73600;BME280;61877;48.246;9.220;2024-01-07T01:40:56;93345.34;;;1.76;100.00
73600;BME280;61877;48.246;9.220;2024-01-07T01:43:23;93352.47;;;1.75;100.00
73600;BME280;61877;48.246;9.220;2024-01-07T01:45:48;93347.50;;;1.74;100.00
73600;BME280;61877;48.246;9.220;2024-01-07T01:48:14;93352.78;;;1.74;100.00
73600;BME280;61877;48.246;9.220;2024-01-07T01:50:39;93351.38;;;1.76;100.00
73600;BME280;61877;48.246;9.220;2024-01-07T01:53:05;93345.34;;;1.76;100.00
73600;BME280;61877;48.246;9.220;2024-01-07T01:55:32;93354.75;;;1.68;100.00
73600;BME280;61877;48.246;9.220;2024-01-07T01:57:59;93353.06;;;1.72;100.00
73600;BME280;61877;48.246;9.220;2024-01-07T02:00:26;93351.19;;;1.73;100.00
73600;BME280;61877;48.246;9.220;2024-01-07T02:02:51;93353.53;;;1.74;100.00
73600;BME280;61877;48.246;9.220;2024-01-07T02:05:16;93347.50;;;1.74;100.00
73600;BME280;61877;48.246;9.220;2024-01-07T02:07:42;93352.78;;;1.74;100.00
73600;BME280;61877;48.246;9.220;2024-01-07T02:10:08;93357.75;;;1.75;100.00
73600;BME280;61877;48.246;9.220;2024-01-07T02:12:35;93350.44;;;1.72;100.00
73600;BME280;61877;48.246;9.220;2024-01-07T02:15:00;93346.88;;;1.77;100.00
73600;BME280;61877;48.246;9.220;2024-01-07T02:17:26;93352.16;;;1.77;100.00
73600;BME280;61877;48.246;9.220;2024-01-07T02:19:52;93353.72;;;1.78;100.00
73600;BME280;61877;48.246;9.220;2024-01-07T02:22:17;93361.97;;;1.76;100.00
73600;BME280;61877;48.246;9.220;2024-01-07T02:24:44;93351.38;;;1.76;100.00
73600;BME280;61877;48.246;9.220;2024-01-07T02:27:09;93357.16;;;1.78;100.00
73600;BME280;61877;48.246;9.220;2024-01-07T02:29:35;93358.06;;;1.74;100.00
73600;BME280;61877;48.246;9.220;2024-01-07T02:32:00;93358.25;;;1.77;100.00
73600;BME280;61877;48.246;9.220;2024-01-07T02:34:26;93362.31;;;1.83;100.00
73600;BME280;61877;48.246;9.220;2024-01-07T02:36:51;93356.25;;;1.83;100.00
73600;BME280;61877;48.246;9.220;2024-01-07T02:39:16;93352.78;;;1.74;100.00
73600;BME280;61877;48.246;9.220;2024-01-07T02:41:43;93349.81;;;1.75;100.00
73600;BME280;61877;48.246;9.220;2024-01-07T02:44:09;93354.31;;;1.75;100.00
73600;BME280;61877;48.246;9.220;2024-01-07T02:46:34;93356.97;;;1.75;100.00
73600;BME280;61877;48.246;9.220;2024-01-07T02:49:00;93356.66;;;1.76;100.00
73600;BME280;61877;48.246;9.220;2024-01-07T02:51:25;93352.97;;;1.77;100.00
73600;BME280;61877;48.246;9.220;2024-01-07T02:53:51;93357.94;;;1.79;100.00
73600;BME280;61877;48.246;9.220;2024-01-07T02:56:16;93356.84;;;1.80;100.00
73600;BME280;61877;48.246;9.220;2024-01-07T02:58:43;93354.88;;;1.85;100.00
73600;BME280;61877;48.246;9.220;2024-01-07T03:01:09;93350.19;;;1.82;100.00
73600;BME280;61877;48.246;9.220;2024-01-07T03:03:35;93354.56;;;1.87;100.00
73600;BME280;61877;48.246;9.220;2024-01-07T03:06:00;93362.03;;;1.85;100.00
73600;BME280;61877;48.246;9.220;2024-01-07T03:08:26;93349.91;;;1.84;100.00
73600;BME280;61877;48.246;9.220;2024-01-07T03:10:51;93355.19;;;1.84;100.00
73600;BME280;61877;48.246;9.220;2024-01-07T03:13:17;93353.47;;;1.88;100.00
73600;BME280;61877;48.246;9.220;2024-01-07T03:15:43;93355.38;;;1.87;100.00
73600;BME280;61877;48.246;9.220;2024-01-07T03:18:09;93359.56;;;1.88;100.00
73600;BME280;61877;48.246;9.220;2024-01-07T03:20:34;93360.06;;;1.90;100.00
73600;BME280;61877;48.246;9.220;2024-01-07T03:23:00;93357.41;;;1.90;100.00
73600;BME280;61877;48.246;9.220;2024-01-07T03:25:25;93361.91;;;1.90;100.00
73600;BME280;61877;48.246;9.220;2024-01-07T03:27:50;93357.72;;;1.89;100.00
73600;BME280;61877;48.246;9.220;2024-01-07T03:30:16;93360.94;;;1.86;100.00
73600;BME280;61877;48.246;9.220;2024-01-07T03:32:43;93364.66;;;1.85;100.00
73600;BME280;61877;48.246;9.220;2024-01-07T03:35:08;93365.94;;;1.87;100.00
73600;BME280;61877;48.246;9.220;2024-01-07T03:37:34;93375.91;;;1.90;100.00
73600;BME280;61877;48.246;9.220;2024-01-07T03:39:59;93370.94;;;1.89;100.00
73600;BME280;61877;48.246;9.220;2024-01-07T03:42:25;93363.56;;;1.86;100.00
73600;BME280;61877;48.246;9.220;2024-01-07T03:44:50;93372.28;;;1.86;100.00
73600;BME280;61877;48.246;9.220;2024-01-07T03:47:16;93376.69;;;1.91;100.00
73600;BME280;61877;48.246;9.220;2024-01-07T03:49:43;93367.19;;;1.90;100.00
73600;BME280;61877;48.246;9.220;2024-01-07T03:52:08;93371.69;;;1.89;100.00
73600;BME280;61877;48.246;9.220;2024-01-07T03:54:34;93375.31;;;1.93;100.00
73600;BME280;61877;48.246;9.220;2024-01-07T03:56:59;93373.88;;;1.87;100.00
73600;BME280;61877;48.246;9.220;2024-01-07T03:59:25;93375.13;;;1.90;100.00
73600;BME280;61877;48.246;9.220;2024-01-07T04:01:50;93371.38;;;1.91;100.00
73600;BME280;61877;48.246;9.220;2024-01-07T04:04:16;93364.84;;;1.88;100.00
73600;BME280;61877;48.246;9.220;2024-01-07T04:06:42;93373.88;;;1.87;100.00
73600;BME280;61877;48.246;9.220;2024-01-07T04:09:08;93369.16;;;1.84;100.00
73600;BME280;61877;48.246;9.220;2024-01-07T04:11:39;93376.22;;;1.89;100.00
73600;BME280;61877;48.246;9.220;2024-01-07T04:14:04;93378.88;;;1.89;100.00
73600;BME280;61877;48.246;9.220;2024-01-07T04:16:29;93377.41;;;1.83;100.00
73600;BME280;61877;48.246;9.220;2024-01-07T04:18:55;93369.59;;;1.78;100.00
73600;BME280;61877;48.246;9.220;2024-01-07T04:21:20;93378.59;;;1.77;100.00
73600;BME280;61877;48.246;9.220;2024-01-07T04:23:47;93376.28;;;1.75;100.00
73600;BME280;61877;48.246;9.220;2024-01-07T04:26:12;93382.81;;;1.78;100.00
73600;BME280;61877;48.246;9.220;2024-01-07T04:28:41;93376.88;;;1.72;100.00
73600;BME280;61877;48.246;9.220;2024-01-07T04:31:06;93375.47;;;1.75;100.00
73600;BME280;61877;48.246;9.220;2024-01-07T04:33:32;93379.81;;;1.71;100.00
73600;BME280;61877;48.246;9.220;2024-01-07T04:35:57;93382.72;;;1.69;100.00
73600;BME280;61877;48.246;9.220;2024-01-07T04:38:22;93379.63;;;1.67;100.00
73600;BME280;61877;48.246;9.220;2024-01-07T04:40:49;93381.78;;;1.65;100.00
73600;BME280;61877;48.246;9.220;2024-01-07T04:43:15;93386.28;;;1.65;100.00
73600;BME280;61877;48.246;9.220;2024-01-07T04:45:40;93382.56;;;1.66;100.00
73600;BME280;61877;48.246;9.220;2024-01-07T04:48:06;93390.97;;;1.68;100.00
73600;BME280;61877;48.246;9.220;2024-01-07T04:50:32;93392.53;;;1.69;100.00
73600;BME280;61877;48.246;9.220;2024-01-07T04:52:57;93393.03;;;1.71;100.00
73600;BME280;61877;48.246;9.220;2024-01-07T04:55:23;93397.41;;;1.75;100.00
73600;BME280;61877;48.246;9.220;2024-01-07T04:57:50;93392.72;;;1.72;100.00
73600;BME280;61877;48.246;9.220;2024-01-07T05:00:15;93400.19;;;1.70;100.00
73600;BME280;61877;48.246;9.220;2024-01-07T05:02:41;93399.38;;;1.70;100.00
73600;BME280;61877;48.246;9.220;2024-01-07T05:05:07;93398.31;;;1.71;100.00
73600;BME280;61877;48.246;9.220;2024-01-07T05:07:33;93396.44;;;1.71;100.00
73600;BME280;61877;48.246;9.220;2024-01-07T05:09:58;93405.09;;;1.63;100.00
73600;BME280;61877;48.246;9.220;2024-01-07T05:12:24;93400.78;;;1.67;100.00
73600;BME280;61877;48.246;9.220;2024-01-07T05:14:51;93400.59;;;1.64;100.00
73600;BME280;61877;48.246;9.220;2024-01-07T05:17:16;93406.66;;;1.64;100.00
73600;BME280;61877;48.246;9.220;2024-01-07T05:19:42;93401.53;;;1.68;100.00
73600;BME280;61877;48.246;9.220;2024-01-07T05:22:07;93406.38;;;1.66;100.00
73600;BME280;61877;48.246;9.220;2024-01-07T05:24:32;93410.16;;;1.73;100.00
73600;BME280;61877;48.246;9.220;2024-01-07T05:26:58;93407.81;;;1.72;100.00
73600;BME280;61877;48.246;9.220;2024-01-07T05:29:23;93407.00;;;1.71;100.00
73600;BME280;61877;48.246;9.220;2024-01-07T05:31:50;93408.41;;;1.69;100.00
73600;BME280;61877;48.246;9.220;2024-01-07T05:34:15;93411.16;;;1.64;100.00
73600;BME280;61877;48.246;9.220;2024-01-07T05:36:41;93415.44;;;1.73;100.00
73600;BME280;61877;48.246;9.220;2024-01-07T05:39:07;93418.38;;;1.72;100.00
73600;BME280;61877;48.246;9.220;2024-01-07T05:41:33;93410.06;;;1.65;100.00
73600;BME280;61877;48.246;9.220;2024-01-07T05:43:58;93417.41;;;1.68;100.00
73600;BME280;61877;48.246;9.220;2024-01-07T05:46:23;93415.84;;;1.67;100.00
73600;BME280;61877;48.246;9.220;2024-01-07T05:48:50;93415.97;;;1.62;100.00
73600;BME280;61877;48.246;9.220;2024-01-07T05:51:16;93430.28;;;1.61;100.00
73600;BME280;61877;48.246;9.220;2024-01-07T05:53:42;93430.56;;;1.59;100.00
73600;BME280;61877;48.246;9.220;2024-01-07T05:56:08;93426.66;;;1.57;100.00
73600;BME280;61877;48.246;9.220;2024-01-07T05:58:34;93427.72;;;1.56;100.00
73600;BME280;61877;48.246;9.220;2024-01-07T06:00:59;93429.78;;;1.59;100.00
73600;BME280;61877;48.246;9.220;2024-01-07T06:03:25;93431.94;;;1.57;100.00
73600;BME280;61877;48.246;9.220;2024-01-07T06:05:51;93430.38;;;1.56;100.00
73600;BME280;61877;48.246;9.220;2024-01-07T06:08:17;93429.28;;;1.57;100.00
73600;BME280;61877;48.246;9.220;2024-01-07T06:10:43;93438.78;;;1.58;100.00
73600;BME280;61877;48.246;9.220;2024-01-07T06:13:08;93443.28;;;1.57;100.00
73600;BME280;61877;48.246;9.220;2024-01-07T06:15:34;93449.94;;;1.55;100.00
73600;BME280;61877;48.246;9.220;2024-01-07T06:17:59;93442.00;;;1.55;100.00
73600;BME280;61877;48.246;9.220;2024-01-07T06:20:25;93446.25;;;1.56;100.00
73600;BME280;61877;48.246;9.220;2024-01-07T06:22:51;93447.28;;;1.55;100.00
73600;BME280;61877;48.246;9.220;2024-01-07T06:25:17;93453.97;;;1.52;100.00
73600;BME280;61877;48.246;9.220;2024-01-07T06:27:42;93450.84;;;1.50;100.00
73600;BME280;61877;48.246;9.220;2024-01-07T06:30:08;93460.63;;;1.50;100.00
73600;BME280;61877;48.246;9.220;2024-01-07T06:32:34;93453.28;;;1.47;100.00
73600;BME280;61877;48.246;9.220;2024-01-07T06:35:00;93455.63;;;1.48;100.00
73600;BME280;61877;48.246;9.220;2024-01-07T06:37:26;93449.38;;;1.44;100.00
73600;BME280;61877;48.246;9.220;2024-01-07T06:39:52;93452.78;;;1.45;100.00
73600;BME280;61877;48.246;9.220;2024-01-07T06:42:18;93463.66;;;1.43;100.00
73600;BME280;61877;48.246;9.220;2024-01-07T06:44:43;93463.16;;;1.41;100.00
73600;BME280;61877;48.246;9.220;2024-01-07T06:47:09;93464.53;;;1.52;100.00
73600;BME280;61877;48.246;9.220;2024-01-07T06:49:34;93470.69;;;1.48;100.00
73600;BME280;61877;48.246;9.220;2024-01-07T06:52:00;93478.16;;;1.46;100.00
73600;BME280;61877;48.246;9.220;2024-01-07T06:54:28;93474.03;;;1.40;100.00
73600;BME280;61877;48.246;9.220;2024-01-07T06:56:55;93475.63;;;1.41;100.00
73600;BME280;61877;48.246;9.220;2024-01-07T06:59:21;93469.53;;;1.40;100.00
73600;BME280;61877;48.246;9.220;2024-01-07T07:01:46;93480.91;;;1.41;100.00
73600;BME280;61877;48.246;9.220;2024-01-07T07:04:12;93480.13;;;1.40;100.00
73600;BME280;61877;48.246;9.220;2024-01-07T07:06:37;93483.53;;;1.41;100.00
73600;BME280;61877;48.246;9.220;2024-01-07T07:09:02;93483.06;;;1.39;100.00
73600;BME280;61877;48.246;9.220;2024-01-07T07:11:29;93484.16;;;1.38;100.00
73600;BME280;61877;48.246;9.220;2024-01-07T07:13:56;93486.28;;;1.36;100.00
73600;BME280;61877;48.246;9.220;2024-01-07T07:16:21;93483.66;;;1.36;100.00
73600;BME280;61877;48.246;9.220;2024-01-07T07:18:47;93493.03;;;1.42;100.00
73600;BME280;61877;48.246;9.220;2024-01-07T07:21:12;93489.03;;;1.44;100.00
73600;BME280;61877;48.246;9.220;2024-01-07T07:23:38;93489.19;;;1.48;100.00
73600;BME280;61877;48.246;9.220;2024-01-07T07:26:03;93486.56;;;1.48;100.00
73600;BME280;61877;48.246;9.220;2024-01-07T07:28:29;93499.19;;;1.51;100.00
73600;BME280;61877;48.246;9.220;2024-01-07T07:30:55;93491.16;;;1.56;100.00
73600;BME280;61877;48.246;9.220;2024-01-07T07:33:21;93486.25;;;1.63;100.00
73600;BME280;61877;48.246;9.220;2024-01-07T07:35:46;93500.84;;;1.60;100.00
73600;BME280;61877;48.246;9.220;2024-01-07T07:38:12;93502.69;;;1.60;100.00
73600;BME280;61877;48.246;9.220;2024-01-07T07:40:37;93499.19;;;1.64;100.00
73600;BME280;61877;48.246;9.220;2024-01-07T07:43:03;93500.25;;;1.63;100.00
73600;BME280;61877;48.246;9.220;2024-01-07T07:45:28;93510.22;;;1.66;100.00
73600;BME280;61877;48.246;9.220;2024-01-07T07:47:55;93514.16;;;1.69;100.00
73600;BME280;61877;48.246;9.220;2024-01-07T07:50:20;93508.28;;;1.72;100.00
73600;BME280;61877;48.246;9.220;2024-01-07T07:52:46;93514.34;;;1.72;100.00
73600;BME280;61877;48.246;9.220;2024-01-07T07:55:11;93515.19;;;1.81;100.00
73600;BME280;61877;48.246;9.220;2024-01-07T07:57:37;93526.88;;;1.80;100.00
73600;BME280;61877;48.246;9.220;2024-01-07T08:00:02;93521.09;;;1.78;100.00
73600;BME280;61877;48.246;9.220;2024-01-07T08:02:28;93525.59;;;1.78;100.00
73600;BME280;61877;48.246;9.220;2024-01-07T08:04:55;93527.38;;;1.82;100.00
73600;BME280;61877;48.246;9.220;2024-01-07T08:07:20;93530.78;;;1.83;100.00
73600;BME280;61877;48.246;9.220;2024-01-07T08:09:46;93535.47;;;1.86;100.00
73600;BME280;61877;48.246;9.220;2024-01-07T08:12:12;93534.09;;;1.88;100.00
73600;BME280;61877;48.246;9.220;2024-01-07T08:14:38;93528.22;;;1.91;100.00
73600;BME280;61877;48.246;9.220;2024-01-07T08:17:03;93542.22;;;1.92;100.00
73600;BME280;61877;48.246;9.220;2024-01-07T08:19:28;93537.44;;;1.94;100.00
73600;BME280;61877;48.246;9.220;2024-01-07T08:21:55;93551.13;;;1.96;100.00
73600;BME280;61877;48.246;9.220;2024-01-07T08:24:21;93544.84;;;2.05;100.00
73600;BME280;61877;48.246;9.220;2024-01-07T08:26:46;93539.56;;;2.05;100.00
73600;BME280;61877;48.246;9.220;2024-01-07T08:29:11;93548.16;;;2.11;100.00
73600;BME280;61877;48.246;9.220;2024-01-07T08:31:37;93540.63;;;2.04;100.00
73600;BME280;61877;48.246;9.220;2024-01-07T08:34:02;93537.94;;;2.18;100.00
73600;BME280;61877;48.246;9.220;2024-01-07T08:36:28;93545.19;;;2.12;100.00
73600;BME280;61877;48.246;9.220;2024-01-07T08:38:54;93545.81;;;2.09;100.00
73600;BME280;61877;48.246;9.220;2024-01-07T08:41:20;93548.56;;;2.04;100.00
73600;BME280;61877;48.246;9.220;2024-01-07T08:43:45;93549.72;;;2.12;100.00
73600;BME280;61877;48.246;9.220;2024-01-07T08:46:11;93547.09;;;2.12;100.00
73600;BME280;61877;48.246;9.220;2024-01-07T08:48:36;93550.53;;;1.99;100.00
73600;BME280;61877;48.246;9.220;2024-01-07T08:51:02;93550.53;;;1.99;100.00
73600;BME280;61877;48.246;9.220;2024-01-07T08:53:27;93545.38;;;1.94;100.00
73600;BME280;61877;48.246;9.220;2024-01-07T08:55:54;93556.59;;;1.99;100.00
73600;BME280;61877;48.246;9.220;2024-01-07T08:58:20;93567.38;;;2.03;100.00
73600;BME280;61877;48.246;9.220;2024-01-07T09:00:45;93561.47;;;2.06;100.00
73600;BME280;61877;48.246;9.220;2024-01-07T09:03:11;93555.13;;;2.07;100.00
73600;BME280;61877;48.246;9.220;2024-01-07T09:05:36;93557.38;;;2.13;100.00
73600;BME280;61877;48.246;9.220;2024-01-07T09:08:02;93556.66;;;2.21;100.00
73600;BME280;61877;48.246;9.220;2024-01-07T09:10:27;93564.31;;;2.23;100.00
73600;BME280;61877;48.246;9.220;2024-01-07T09:12:54;93564.78;;;2.25;100.00
73600;BME280;61877;48.246;9.220;2024-01-07T09:15:19;93565.69;;;2.20;100.00
73600;BME280;61877;48.246;9.220;2024-01-07T09:17:45;93574.56;;;2.38;100.00
73600;BME280;61877;48.246;9.220;2024-01-07T09:20:11;93579.63;;;2.48;100.00
73600;BME280;61877;48.246;9.220;2024-01-07T09:22:37;93575.41;;;2.47;100.00
73600;BME280;61877;48.246;9.220;2024-01-07T09:25:03;93581.56;;;2.56;100.00
73600;BME280;61877;48.246;9.220;2024-01-07T09:27:28;93577.28;;;2.46;100.00
73600;BME280;61877;48.246;9.220;2024-01-07T09:29:55;93577.66;;;2.53;100.00
73600;BME280;61877;48.246;9.220;2024-01-07T09:32:22;93576.25;;;2.56;100.00
73600;BME280;61877;48.246;9.220;2024-01-07T09:34:48;93580.94;;;2.59;100.00
73600;BME280;61877;48.246;9.220;2024-01-07T09:37:13;93591.34;;;2.55;100.00
73600;BME280;61877;48.246;9.220;2024-01-07T09:39:39;93586.97;;;2.51;100.00
73600;BME280;61877;48.246;9.220;2024-01-07T09:42:04;93587.16;;;2.77;100.00
73600;BME280;61877;48.246;9.220;2024-01-07T09:44:30;93584.75;;;2.67;100.00
73600;BME280;61877;48.246;9.220;2024-01-07T09:46:58;93581.50;;;2.70;100.00
73600;BME280;61877;48.246;9.220;2024-01-07T09:49:24;93585.88;;;2.74;100.00
73600;BME280;61877;48.246;9.220;2024-01-07T09:51:50;93586.88;;;2.78;100.00
73600;BME280;61877;48.246;9.220;2024-01-07T09:54:20;93586.00;;;2.69;100.00
73600;BME280;61877;48.246;9.220;2024-01-07T09:56:50;93592.28;;;2.73;100.00
73600;BME280;61877;48.246;9.220;2024-01-07T09:59:18;93588.16;;;2.67;100.00
73600;BME280;61877;48.246;9.220;2024-01-07T10:01:44;93589.63;;;2.73;100.00
73600;BME280;61877;48.246;9.220;2024-01-07T10:04:12;93585.53;;;2.67;100.00
73600;BME280;61877;48.246;9.220;2024-01-07T10:06:37;93595.66;;;2.65;100.00
73600;BME280;61877;48.246;9.220;2024-01-07T10:09:03;93584.44;;;2.68;100.00
73600;BME280;61877;48.246;9.220;2024-01-07T10:11:30;93586.66;;;2.52;100.00
73600;BME280;61877;48.246;9.220;2024-01-07T10:13:56;93587.69;;;2.43;100.00
73600;BME280;61877;48.246;9.220;2024-01-07T10:16:21;93590.50;;;2.46;100.00
73600;BME280;61877;48.246;9.220;2024-01-07T10:18:46;93600.81;;;2.48;100.00
73600;BME280;61877;48.246;9.220;2024-01-07T10:21:13;93597.66;;;2.46;100.00
73600;BME280;61877;48.246;9.220;2024-01-07T10:23:39;93599.09;;;2.30;100.00
73600;BME280;61877;48.246;9.220;2024-01-07T10:26:05;93603.97;;;2.36;100.00
73600;BME280;61877;48.246;9.220;2024-01-07T10:28:30;93599.28;;;2.20;100.00
73600;BME280;61877;48.246;9.220;2024-01-07T10:30:56;93603.78;;;2.19;100.00
73600;BME280;61877;48.246;9.220;2024-01-07T10:33:22;93602.56;;;2.03;100.00
73600;BME280;61877;48.246;9.220;2024-01-07T10:36:01;93598.31;;;2.02;100.00
73600;BME280;61877;48.246;9.220;2024-01-07T10:38:28;93597.75;;;1.92;100.00
73600;BME280;61877;48.246;9.220;2024-01-07T10:40:55;93602.97;;;1.97;100.00
73600;BME280;61877;48.246;9.220;2024-01-07T10:43:23;93595.22;;;1.87;100.00
73600;BME280;61877;48.246;9.220;2024-01-07T10:45:51;93598.66;;;1.87;100.00
73600;BME280;61877;48.246;9.220;2024-01-07T10:48:17;93605.00;;;2.00;100.00
73600;BME280;61877;48.246;9.220;2024-01-07T10:50:44;93600.97;;;2.02;100.00
73600;BME280;61877;48.246;9.220;2024-01-07T10:53:14;93603.41;;;2.12;100.00
73600;BME280;61877;48.246;9.220;2024-01-07T10:55:48;93601.16;;;2.06;100.00
73600;BME280;61877;48.246;9.220;2024-01-07T10:58:18;93608.34;;;1.92;100.00
73600;BME280;61877;48.246;9.220;2024-01-07T11:00:44;93605.22;;;1.90;100.00
73600;BME280;61877;48.246;9.220;2024-01-07T11:03:11;93606.09;;;1.72;100.00
73600;BME280;61877;48.246;9.220;2024-01-07T11:05:50;93606.69;;;1.69;100.00
73600;BME280;61877;48.246;9.220;2024-01-07T11:08:20;93610.41;;;1.81;100.00
73600;BME280;61877;48.246;9.220;2024-01-07T11:10:50;93608.94;;;1.75;100.00
73600;BME280;61877;48.246;9.220;2024-01-07T11:13:33;93614.81;;;1.72;100.00
73600;BME280;61877;48.246;9.220;2024-01-07T11:16:01;93611.97;;;1.82;100.00
73600;BME280;61877;48.246;9.220;2024-01-07T11:18:27;93611.88;;;1.74;100.00
73600;BME280;61877;48.246;9.220;2024-01-07T11:20:53;93615.00;;;1.62;100.00
73600;BME280;61877;48.246;9.220;2024-01-07T11:23:28;93607.19;;;1.57;100.00
73600;BME280;61877;48.246;9.220;2024-01-07T11:25:56;93613.53;;;1.70;100.00
73600;BME280;61877;48.246;9.220;2024-01-07T11:28:42;93604.81;;;1.42;100.00
73600;BME280;61877;48.246;9.220;2024-01-07T11:31:07;93609.50;;;1.45;100.00
73600;BME280;61877;48.246;9.220;2024-01-07T11:33:33;93611.72;;;1.24;100.00
73600;BME280;61877;48.246;9.220;2024-01-07T11:35:59;93613.38;;;1.20;100.00
73600;BME280;61877;48.246;9.220;2024-01-07T11:38:25;93610.66;;;1.25;100.00
73600;BME280;61877;48.246;9.220;2024-01-07T11:40:51;93613.19;;;1.17;100.00
73600;BME280;61877;48.246;9.220;2024-01-07T11:43:18;93612.50;;;1.25;100.00
73600;BME280;61877;48.246;9.220;2024-01-07T11:45:44;93607.50;;;1.23;100.00
73600;BME280;61877;48.246;9.220;2024-01-07T11:48:09;93612.38;;;1.16;100.00
73600;BME280;61877;48.246;9.220;2024-01-07T11:50:35;93610.16;;;1.23;100.00
73600;BME280;61877;48.246;9.220;2024-01-07T11:53:00;93620.44;;;1.25;100.00
73600;BME280;61877;48.246;9.220;2024-01-07T11:55:26;93606.50;;;1.06;100.00
73600;BME280;61877;48.246;9.220;2024-01-07T11:57:52;93612.56;;;1.06;100.00
73600;BME280;61877;48.246;9.220;2024-01-07T12:00:19;93609.44;;;1.04;100.00
73600;BME280;61877;48.246;9.220;2024-01-07T12:02:46;93619.81;;;1.01;100.00
73600;BME280;61877;48.246;9.220;2024-01-07T12:05:11;93617.03;;;0.92;100.00
73600;BME280;61877;48.246;9.220;2024-01-07T12:07:37;93611.53;;;0.89;100.00
73600;BME280;61877;48.246;9.220;2024-01-07T12:10:03;93615.38;;;0.96;100.00
73600;BME280;61877;48.246;9.220;2024-01-07T12:12:28;93615.75;;;0.90;100.00
73600;BME280;61877;48.246;9.220;2024-01-07T12:14:54;93619.88;;;0.96;100.00
73600;BME280;61877;48.246;9.220;2024-01-07T12:17:22;93618.72;;;1.02;100.00
73600;BME280;61877;48.246;9.220;2024-01-07T12:19:47;93623.19;;;1.01;100.00
73600;BME280;61877;48.246;9.220;2024-01-07T12:22:13;93620.84;;;1.00;100.00
73600;BME280;61877;48.246;9.220;2024-01-07T12:24:38;93629.34;;;0.97;100.00
73600;BME280;61877;48.246;9.220;2024-01-07T12:27:04;93624.38;;;0.95;100.00
73600;BME280;61877;48.246;9.220;2024-01-07T12:29:30;93622.25;;;0.79;100.00
73600;BME280;61877;48.246;9.220;2024-01-07T12:31:55;93626.34;;;0.71;100.00
73600;BME280;61877;48.246;9.220;2024-01-07T12:34:22;93623.25;;;0.83;100.00
73600;BME280;61877;48.246;9.220;2024-01-07T12:36:47;93637.06;;;0.93;100.00
73600;BME280;61877;48.246;9.220;2024-01-07T12:39:13;93628.34;;;0.79;100.00
73600;BME280;61877;48.246;9.220;2024-01-07T12:41:38;93633.47;;;0.71;100.00
73600;BME280;61877;48.246;9.220;2024-01-07T12:44:04;93633.97;;;0.73;100.00
73600;BME280;61877;48.246;9.220;2024-01-07T12:46:29;93630.47;;;0.77;100.00
73600;BME280;61877;48.246;9.220;2024-01-07T12:48:55;93635.03;;;0.72;100.00
73600;BME280;61877;48.246;9.220;2024-01-07T12:51:23;93643.91;;;0.62;100.00
73600;BME280;61877;48.246;9.220;2024-01-07T12:53:49;93638.84;;;0.47;100.00